Time;durP1;ratioP1;P1;durP2;ratioP2;P2;SDS_P1;SDS_P2;PMS_P1;PMS_P2;Temp;Humidity;BMP_temperature;BMP_pressure;BME280_temperature;BME280_humidity;BME280_pressure;Samples;Min_cycle;Max_cycle;Signal;HPM_P1;HPM_P2
2023/05/02 00:00:02;;;;;;;2.22;1.10;;;17.70;99.90;;;;;;5009407;28;20533;-63
2023/05/02 00:02:30;;;;;;;1.48;0.95;;;17.80;99.90;;;;;;5021457;28;20025;-64
2023/05/02 00:04:57;;;;;;;5.93;1.02;;;17.90;99.90;;;;;;5009813;28;20112;-64
2023/05/02 00:07:25;;;;;;;2.35;1.15;;;18.00;99.90;;;;;;5009169;28;20368;-64
2023/05/02 00:09:53;;;;;;;1.52;1.02;;;18.20;99.90;;;;;;5028181;28;20542;-64
2023/05/02 00:12:21;;;;;;;2.05;0.90;;;18.30;99.90;;;;;;5032605;28;20021;-64
2023/05/02 00:14:49;;;;;;;2.20;1.10;;;18.30;99.90;;;;;;5032310;28;20368;-64
2023/05/02 00:17:20;;;;;;;1.95;1.00;;;18.40;99.90;;;;;;5032165;28;20021;-65
2023/05/02 00:19:48;;;;;;;3.03;1.27;;;18.60;99.90;;;;;;5026580;28;20790;-67
2023/05/02 00:22:15;;;;;;;2.78;1.15;;;18.60;99.90;;;;;;5022378;28;20044;-68
2023/05/02 00:24:43;;;;;;;2.00;0.90;;;18.80;99.90;;;;;;5016176;28;20021;-65
2023/05/02 00:27:11;;;;;;;2.92;1.10;;;18.90;99.90;;;;;;5050272;28;20469;-66
2023/05/02 00:29:38;;;;;;;3.72;1.35;;;19.00;99.90;;;;;;5052499;28;20056;-66
2023/05/02 00:32:06;;;;;;;3.97;1.33;;;19.00;99.90;;;;;;5052156;28;20025;-65
2023/05/02 00:34:34;;;;;;;2.60;1.33;;;19.20;99.90;;;;;;5050566;28;20032;-66
2023/05/02 00:37:01;;;;;;;3.20;1.33;;;19.30;99.90;;;;;;5031844;28;20112;-65
2023/05/02 00:39:28;;;;;;;2.80;1.15;;;19.40;99.90;;;;;;5028393;28;20470;-66
2023/05/02 00:41:59;;;;;;;2.90;1.35;;;19.50;99.90;;;;;;5024831;28;20080;-66
2023/05/02 00:44:27;;;;;;;2.35;1.38;;;19.50;99.90;;;;;;5021342;28;20030;-66
2023/05/02 00:47:00;;;;;;;4.75;1.50;;;19.60;99.90;;;;;;5010824;28;20073;-65
2023/05/02 00:49:28;;;;;;;4.55;1.73;;;19.60;99.90;;;;;;5008206;28;20733;-66
2023/05/02 00:51:55;;;;;;;5.30;1.33;;;19.70;99.90;;;;;;5004152;28;20026;-65
2023/05/02 00:54:23;;;;;;;3.25;1.52;;;19.80;99.90;;;;;;5002581;28;20105;-66
2023/05/02 00:56:51;;;;;;;4.63;1.10;;;19.90;99.90;;;;;;5005584;28;20018;-66
2023/05/02 00:59:18;;;;;;;3.40;1.30;;;20.00;99.90;;;;;;5001078;28;20038;-66
2023/05/02 01:01:59;;;;;;;4.70;1.40;;;19.90;99.90;;;;;;4999338;28;20403;-66
2023/05/02 01:04:30;;;;;;;3.67;1.58;;;20.10;99.90;;;;;;5008098;28;20036;-66
2023/05/02 01:07:29;;;;;;;3.00;1.40;;;20.10;99.90;;;;;;4999659;28;20503;-66
2023/05/02 01:10:22;;;;;;;4.03;1.30;;;20.10;99.90;;;;;;4997958;28;20084;-65
2023/05/02 01:13:07;;;;;;;2.38;1.30;;;20.30;99.90;;;;;;4997287;28;20459;-70
2023/05/02 01:15:37;;;;;;;4.35;1.33;;;20.50;99.90;;;;;;5006430;28;20036;-66
2023/05/02 01:18:08;;;;;;;1.98;1.10;;;20.60;99.90;;;;;;5004949;28;20128;-66
2023/05/02 01:20:40;;;;;;;3.38;1.10;;;20.70;99.90;;;;;;5005481;28;20562;-65
2023/05/02 01:23:25;;;;;;;1.75;1.20;;;20.90;97.30;;;;;;5000342;28;20022;-65
2023/05/02 01:26:22;;;;;;;4.15;1.08;;;20.90;97.50;;;;;;5000863;28;20029;-67
2023/05/02 01:28:59;;;;;;;2.67;1.27;;;21.10;96.50;;;;;;5000774;28;20022;-68
2023/05/02 01:31:31;;;;;;;3.03;1.60;;;21.10;95.80;;;;;;5000137;28;20022;-69
2023/05/02 01:34:00;;;;;;;6.03;1.50;;;21.30;96.20;;;;;;4998527;28;20057;-68
2023/05/02 01:36:31;;;;;;;13.30;1.40;;;21.50;93.60;;;;;;5002372;28;20025;-67
2023/05/02 01:39:01;;;;;;;7.97;1.67;;;21.70;92.50;;;;;;5000159;28;20510;-69
2023/05/02 01:41:31;;;;;;;3.95;1.27;;;21.80;92.00;;;;;;5002975;28;20084;-65
2023/05/02 01:44:01;;;;;;;6.63;1.25;;;21.90;91.80;;;;;;4998966;28;20080;-65
2023/05/02 01:46:33;;;;;;;6.53;1.33;;;22.00;90.60;;;;;;5001982;28;20037;-66
2023/05/02 01:49:08;;;;;;;1.77;1.13;;;22.10;89.40;;;;;;5040866;28;20029;-65
2023/05/02 01:51:40;;;;;;;6.32;1.45;;;22.20;90.00;;;;;;5023315;28;20040;-66
2023/05/02 01:54:10;;;;;;;3.78;1.13;;;22.30;90.00;;;;;;5020553;28;20119;-65
2023/05/02 01:56:39;;;;;;;1.33;0.93;;;22.30;87.50;;;;;;5038170;28;20022;-65
2023/05/02 01:59:10;;;;;;;2.33;0.75;;;22.00;89.10;;;;;;5038978;28;20037;-65
2023/05/02 02:01:40;;;;;;;4.38;1.02;;;21.90;85.50;;;;;;5036678;28;20478;-66
2023/05/02 02:04:10;;;;;;;6.88;1.30;;;21.70;86.40;;;;;;5028380;28;20039;-65
2023/05/02 02:06:38;;;;;;;4.45;0.95;;;21.70;88.00;;;;;;5034471;28;20029;-66
2023/05/02 02:09:07;;;;;;;6.82;1.85;;;21.80;87.50;;;;;;5040155;28;20646;-66
2023/05/02 02:12:02;;;;;;;9.55;1.08;;;21.80;86.80;;;;;;5024335;28;20551;-66
2023/05/02 02:14:36;;;;;;;4.22;1.50;;;21.70;86.60;;;;;;5002398;28;20482;-67
2023/05/02 02:17:12;;;;;;;1.58;0.80;;;21.60;87.70;;;;;;5046934;28;20024;-66
2023/05/02 02:19:41;;;;;;;3.03;0.93;;;21.40;88.50;;;;;;5038504;28;20045;-66
2023/05/02 02:22:11;;;;;;;4.35;1.40;;;21.30;89.20;;;;;;5039064;28;20386;-66
2023/05/02 02:24:39;;;;;;;1.45;0.90;;;21.30;87.90;;;;;;5040543;28;20029;-66
2023/05/02 02:27:07;;;;;;;2.53;1.02;;;21.10;89.30;;;;;;5040613;28;20657;-66
2023/05/02 02:29:35;;;;;;;2.60;0.98;;;20.90;90.40;;;;;;5037616;28;20117;-66
2023/05/02 02:32:02;;;;;;;4.05;0.90;;;20.70;90.80;;;;;;5039843;28;20044;-66
2023/05/02 02:34:30;;;;;;;4.03;1.17;;;20.60;90.90;;;;;;5039997;28;20132;-66
2023/05/02 02:37:04;;;;;;;2.38;1.00;;;20.50;92.00;;;;;;5036835;28;20106;-65
2023/05/02 02:39:38;;;;;;;4.70;0.88;;;20.70;91.90;;;;;;5038826;28;20064;-65
2023/05/02 02:42:38;;;;;;;5.67;1.23;;;21.00;92.10;;;;;;5040314;28;20032;-66
2023/05/02 02:45:14;;;;;;;1.63;0.82;;;21.00;90.70;;;;;;5038882;28;20021;-66
2023/05/02 02:48:15;;;;;;;6.25;1.20;;;21.20;90.40;;;;;;5040260;28;20045;-65
2023/05/02 02:50:54;;;;;;;1.73;0.80;;;21.30;91.00;;;;;;5033754;28;20421;-65
2023/05/02 02:53:46;;;;;;;3.15;1.00;;;21.60;90.70;;;;;;5036318;28;20026;-66
2023/05/02 02:56:25;;;;;;;1.20;0.70;;;22.20;90.60;;;;;;5030122;28;20079;-66
2023/05/02 02:59:12;;;;;;;2.15;1.10;;;22.50;88.30;;;;;;5028268;28;20037;-67
2023/05/02 03:01:43;;;;;;;1.35;0.55;;;22.50;87.10;;;;;;5040288;28;20017;-67
2023/05/02 03:04:12;;;;;;;1.38;0.70;;;22.40;83.90;;;;;;5042668;28;20024;-66
2023/05/02 03:06:40;;;;;;;0.70;0.52;;;22.30;85.00;;;;;;5031147;28;20104;-66
2023/05/02 03:09:18;;;;;;;1.92;0.80;;;22.30;82.80;;;;;;5039483;28;20045;-66
2023/05/02 03:11:46;;;;;;;2.10;0.68;;;22.30;85.00;;;;;;5043945;28;20025;-65
2023/05/02 03:14:13;;;;;;;7.05;2.30;;;22.30;85.60;;;;;;5044469;28;20029;-66
2023/05/02 03:16:42;;;;;;;3.22;0.98;;;22.10;86.90;;;;;;5041320;28;20112;-66
2023/05/02 03:19:09;;;;;;;1.38;0.70;;;22.00;83.50;;;;;;5045016;28;20119;-67
2023/05/02 03:21:37;;;;;;;7.93;0.90;;;21.90;82.60;;;;;;5041388;28;20021;-66
2023/05/02 03:24:05;;;;;;;4.68;1.02;;;21.90;84.30;;;;;;5041214;28;20032;-66
2023/05/02 03:26:32;;;;;;;2.70;1.25;;;21.80;87.50;;;;;;5044493;28;20481;-65
2023/05/02 03:29:00;;;;;;;4.70;1.00;;;22.00;86.60;;;;;;5047362;28;20032;-66
2023/05/02 03:31:27;;;;;;;4.85;1.13;;;22.10;84.00;;;;;;5036984;28;20025;-66
2023/05/02 03:33:54;;;;;;;2.67;1.55;;;22.10;84.40;;;;;;5030674;28;20032;-65
2023/05/02 03:36:22;;;;;;;1.17;0.60;;;22.20;82.70;;;;;;5034148;28;20018;-66
2023/05/02 03:38:49;;;;;;;1.35;0.63;;;22.30;82.10;;;;;;5041411;28;20120;-66
2023/05/02 03:41:17;;;;;;;1.00;0.50;;;22.40;81.00;;;;;;5033187;28;20195;-66
2023/05/02 03:43:44;;;;;;;1.27;0.52;;;22.50;80.30;;;;;;5021222;28;20052;-66
2023/05/02 03:46:12;;;;;;;1.33;0.50;;;22.50;82.90;;;;;;5047358;28;20021;-66
2023/05/02 03:48:39;;;;;;;1.02;0.55;;;22.60;80.50;;;;;;5041941;28;20502;-66
2023/05/02 03:51:08;;;;;;;2.30;0.80;;;22.50;79.00;;;;;;5045871;28;20021;-67
2023/05/02 03:53:36;;;;;;;0.77;0.47;;;22.50;79.60;;;;;;5028354;28;20491;-68
2023/05/02 03:56:04;;;;;;;3.25;0.50;;;22.50;79.70;;;;;;5044132;28;20017;-67
2023/05/02 03:58:32;;;;;;;3.38;0.60;;;22.40;80.50;;;;;;5038279;28;20060;-67
2023/05/02 04:00:59;;;;;;;1.50;0.65;;;22.50;79.50;;;;;;5044930;28;20025;-66
2023/05/02 04:03:31;;;;;;;1.08;0.45;;;22.70;79.60;;;;;;5047496;28;20482;-66
2023/05/02 04:05:58;;;;;;;1.98;0.60;;;22.80;77.40;;;;;;5041952;28;20135;-68
2023/05/02 04:08:25;;;;;;;1.02;0.40;;;23.00;78.80;;;;;;5038396;28;20041;-66
2023/05/02 04:10:53;;;;;;;0.70;0.57;;;23.10;77.60;;;;;;5049447;28;20482;-67
2023/05/02 04:13:20;;;;;;;2.08;0.50;;;23.00;78.10;;;;;;5021627;28;20040;-67
2023/05/02 04:15:48;;;;;;;0.65;0.43;;;22.90;77.30;;;;;;5037253;28;20013;-67
2023/05/02 04:18:15;;;;;;;1.50;0.70;;;22.70;76.70;;;;;;5024660;28;20438;-67
2023/05/02 04:20:45;;;;;;;1.50;0.50;;;22.50;77.90;;;;;;5047801;28;20021;-68
2023/05/02 04:23:13;;;;;;;1.67;1.23;;;22.40;78.40;;;;;;5046528;28;20033;-68
2023/05/02 04:25:40;;;;;;;1.17;0.68;;;22.30;80.40;;;;;;5038089;28;20032;-68
2023/05/02 04:28:08;;;;;;;0.85;0.47;;;22.10;79.70;;;;;;5045246;28;20020;-68
2023/05/02 04:30:36;;;;;;;2.35;0.80;;;21.80;80.10;;;;;;5053288;28;20020;-69
2023/05/02 04:33:03;;;;;;;6.47;1.00;;;21.60;81.40;;;;;;5036624;28;20033;-70
2023/05/02 04:35:31;;;;;;;1.77;0.40;;;21.30;83.00;;;;;;5044980;28;20020;-67
2023/05/02 04:37:58;;;;;;;0.70;0.40;;;21.20;82.20;;;;;;5047123;28;20520;-67
2023/05/02 04:40:26;;;;;;;2.47;0.50;;;21.20;85.10;;;;;;5045466;28;20116;-67
2023/05/02 04:42:53;;;;;;;1.23;0.32;;;21.40;79.40;;;;;;5044489;28;20032;-67
2023/05/02 04:45:21;;;;;;;1.23;0.65;;;21.40;77.70;;;;;;5025446;28;20079;-66
2023/05/02 04:47:48;;;;;;;1.50;0.40;;;21.50;77.20;;;;;;5039959;28;20072;-67
2023/05/02 04:50:16;;;;;;;2.20;0.70;;;21.60;79.40;;;;;;5041604;28;20085;-65
2023/05/02 04:52:43;;;;;;;1.55;0.63;;;21.70;78.80;;;;;;5038912;28;20017;-66
2023/05/02 04:55:11;;;;;;;4.03;1.23;;;21.70;80.80;;;;;;5039647;28;20036;-66
2023/05/02 04:57:39;;;;;;;2.08;0.47;;;21.80;80.00;;;;;;5042876;28;20017;-66
2023/05/02 05:00:07;;;;;;;3.33;0.50;;;21.80;78.80;;;;;;5041947;28;20087;-67
2023/05/02 05:02:34;;;;;;;2.22;0.50;;;21.80;81.30;;;;;;5038508;28;20581;-66
2023/05/02 05:05:03;;;;;;;0.55;0.40;;;21.80;80.60;;;;;;5048033;28;20028;-66
2023/05/02 05:07:30;;;;;;;0.60;0.22;;;21.80;82.20;;;;;;5058403;28;20036;-67
2023/05/02 05:09:58;;;;;;;1.15;0.40;;;21.70;81.00;;;;;;5038450;28;20115;-66
2023/05/02 05:12:25;;;;;;;5.43;0.85;;;21.60;81.70;;;;;;5041991;28;20580;-66
2023/05/02 05:14:53;;;;;;;1.80;0.40;;;21.40;80.50;;;;;;5037574;28;20381;-66
2023/05/02 05:17:21;;;;;;;3.75;0.80;;;21.40;83.20;;;;;;5023857;28;20523;-68
2023/05/02 05:19:49;;;;;;;3.20;0.80;;;21.30;82.30;;;;;;5017685;28;20482;-70
2023/05/02 05:22:16;;;;;;;3.83;0.77;;;21.30;81.90;;;;;;5054064;28;20028;-67
2023/05/02 05:24:54;;;;;;;2.03;0.43;;;21.30;82.80;;;;;;5045144;28;20025;-70
2023/05/02 05:27:22;;;;;;;2.03;0.35;;;21.30;83.50;;;;;;5038981;28;20091;-69
2023/05/02 05:29:49;;;;;;;2.30;0.50;;;21.20;83.80;;;;;;5050605;28;20024;-67
2023/05/02 05:32:17;;;;;;;7.13;2.17;;;21.20;85.70;;;;;;5043121;28;20025;-67
2023/05/02 05:34:44;;;;;;;1.67;0.38;;;21.20;84.70;;;;;;5031908;28;20087;-68
2023/05/02 05:37:12;;;;;;;7.03;0.50;;;21.30;83.80;;;;;;5041067;28;20050;-68
2023/05/02 05:39:39;;;;;;;4.35;0.65;;;21.20;85.70;;;;;;5048626;28;20049;-67
2023/05/02 05:42:08;;;;;;;0.85;0.50;;;21.20;83.10;;;;;;5044936;28;20051;-67
2023/05/02 05:44:36;;;;;;;2.35;0.52;;;21.20;84.30;;;;;;5041772;28;20049;-68
2023/05/02 05:47:04;;;;;;;8.38;1.15;;;21.00;84.70;;;;;;5036947;28;20049;-68
2023/05/02 05:49:31;;;;;;;0.93;0.43;;;20.80;85.50;;;;;;5039582;28;20028;-69
2023/05/02 05:52:00;;;;;;;1.02;0.50;;;20.80;85.50;;;;;;5047442;28;20159;-69
2023/05/02 05:54:27;;;;;;;0.60;0.50;;;20.60;86.00;;;;;;5023099;28;20021;-69
2023/05/02 05:56:55;;;;;;;1.92;0.32;;;20.50;86.90;;;;;;5048343;28;20025;-69
2023/05/02 05:59:22;;;;;;;1.05;0.68;;;20.30;88.50;;;;;;5056319;28;20390;-69
2023/05/02 06:01:50;;;;;;;1.65;0.43;;;20.10;88.90;;;;;;5038482;28;20426;-69
2023/05/02 06:04:17;;;;;;;2.22;0.60;;;20.10;89.80;;;;;;5033663;28;20510;-68
2023/05/02 06:06:45;;;;;;;6.13;0.85;;;20.00;90.50;;;;;;5044757;28;20027;-69
2023/05/02 06:09:12;;;;;;;1.05;0.38;;;20.00;91.20;;;;;;5040043;28;20075;-69
2023/05/02 06:11:40;;;;;;;3.40;0.90;;;19.90;91.20;;;;;;5036371;28;20437;-68
2023/05/02 06:14:07;;;;;;;2.00;0.50;;;19.90;92.10;;;;;;5015476;28;20033;-72
2023/05/02 06:16:35;;;;;;;13.20;1.10;;;19.80;92.90;;;;;;5023861;28;20028;-68
2023/05/02 06:19:02;;;;;;;4.90;0.85;;;19.80;93.50;;;;;;5041409;28;20060;-68
2023/05/02 06:21:30;;;;;;;3.33;0.80;;;19.80;93.30;;;;;;5023942;28;20067;-69
2023/05/02 06:23:57;;;;;;;8.20;0.95;;;19.70;94.40;;;;;;5046010;28;20850;-68
2023/05/02 06:26:25;;;;;;;10.00;1.45;;;19.80;93.80;;;;;;5038792;28;20040;-68
2023/05/02 06:28:53;;;;;;;8.50;1.02;;;19.80;93.90;;;;;;5024709;28;20083;-68
2023/05/02 06:31:21;;;;;;;8.32;1.63;;;19.70;95.10;;;;;;5037983;28;20067;-69
2023/05/02 06:33:49;;;;;;;12.48;1.33;;;19.70;95.60;;;;;;5040412;28;20108;-69
2023/05/02 06:36:16;;;;;;;8.18;1.27;;;19.70;95.00;;;;;;5043753;28;20032;-67
2023/05/02 06:38:43;;;;;;;5.15;1.98;;;19.60;95.20;;;;;;5043015;28;20398;-68
2023/05/02 06:41:14;;;;;;;9.13;1.10;;;19.60;96.00;;;;;;5040638;28;20032;-69
2023/05/02 06:43:42;;;;;;;11.77;1.58;;;19.50;96.50;;;;;;5045806;28;20021;-69
2023/05/02 06:46:09;;;;;;;7.28;1.23;;;19.40;96.90;;;;;;5041018;28;20025;-70
2023/05/02 06:48:37;;;;;;;16.30;2.60;;;19.40;96.90;;;;;;5030899;28;20770;-69
2023/05/02 06:51:04;;;;;;;12.73;2.08;;;19.30;97.50;;;;;;5040241;28;20022;-69
2023/05/02 06:53:32;;;;;;;10.48;1.05;;;19.30;98.00;;;;;;5028995;28;20440;-69
2023/05/02 06:55:59;;;;;;;10.93;1.48;;;19.40;97.50;;;;;;5044114;28;20032;-68
2023/05/02 06:58:27;;;;;;;2.65;0.95;;;19.40;97.80;;;;;;5039123;28;20064;-69
2023/05/02 07:00:54;;;;;;;10.55;1.40;;;19.40;97.20;;;;;;5039517;28;21549;-68
2023/05/02 07:03:22;;;;;;;14.50;1.23;;;19.40;97.70;;;;;;5045387;28;20052;-68
2023/05/02 07:05:49;;;;;;;4.18;0.60;;;19.40;98.30;;;;;;5028645;28;20128;-69
2023/05/02 07:08:17;;;;;;;3.67;0.77;;;19.30;99.10;;;;;;5040065;28;20381;-69
2023/05/02 07:10:44;;;;;;;3.95;0.70;;;19.20;98.60;;;;;;5044808;28;20544;-68
2023/05/02 07:13:12;;;;;;;5.43;0.57;;;19.10;98.90;;;;;;5026754;28;20037;-68
2023/05/02 07:15:39;;;;;;;3.00;0.73;;;19.00;99.30;;;;;;5047391;28;20381;-69
2023/05/02 07:18:07;;;;;;;2.08;0.57;;;19.00;99.90;;;;;;5045249;28;20033;-68
2023/05/02 07:20:34;;;;;;;0.38;0.32;;;19.00;99.90;;;;;;5039454;28;20163;-68
2023/05/02 07:23:02;;;;;;;1.45;0.40;;;18.90;99.90;;;;;;5025422;28;20448;-68
2023/05/02 07:25:30;;;;;;;4.13;0.57;;;18.80;99.90;;;;;;5046662;28;20029;-68
2023/05/02 07:27:57;;;;;;;0.90;0.40;;;18.70;99.90;;;;;;5047987;28;20056;-68
2023/05/02 07:30:25;;;;;;;2.15;0.60;;;18.60;99.90;;;;;;5045995;28;20096;-68
2023/05/02 07:32:52;;;;;;;2.42;0.63;;;18.40;99.90;;;;;;5036535;28;20538;-67
2023/05/02 07:35:20;;;;;;;4.50;0.95;;;18.30;99.90;;;;;;5040742;28;20112;-68
2023/05/02 07:37:47;;;;;;;1.30;0.80;;;18.20;99.90;;;;;;5029345;28;20025;-68
2023/05/02 07:40:15;;;;;;;3.97;0.73;;;18.00;99.90;;;;;;5046710;28;20115;-68
2023/05/02 07:42:43;;;;;;;2.97;0.70;;;17.90;99.90;;;;;;5050334;28;20028;-67
2023/05/02 07:45:10;;;;;;;2.03;0.63;;;17.80;99.90;;;;;;5042473;28;20072;-67
2023/05/02 07:47:38;;;;;;;3.28;0.55;;;17.70;99.90;;;;;;5038553;28;20126;-67
2023/05/02 07:50:06;;;;;;;1.98;0.77;;;17.60;99.90;;;;;;5040537;28;20028;-67
2023/05/02 07:52:34;;;;;;;1.90;0.50;;;17.40;99.90;;;;;;5041599;28;20658;-67
2023/05/02 07:55:01;;;;;;;2.20;0.57;;;17.30;99.90;;;;;;5046020;28;20152;-66
2023/05/02 07:57:29;;;;;;;0.90;0.63;;;17.20;99.90;;;;;;5042698;28;20039;-63
2023/05/02 07:59:57;;;;;;;3.13;0.75;;;17.10;99.90;;;;;;5044320;28;20041;-63
2023/05/02 08:02:24;;;;;;;4.00;0.60;;;17.10;99.90;;;;;;5038570;28;20025;-62
2023/05/02 08:04:52;;;;;;;1.27;0.77;;;17.10;99.90;;;;;;5033065;28;20031;-62
2023/05/02 08:07:20;;;;;;;2.08;0.95;;;17.10;99.90;;;;;;5043773;28;20024;-58
2023/05/02 08:09:47;;;;;;;2.80;0.73;;;17.10;99.90;;;;;;5041124;28;20059;-62
2023/05/02 08:12:15;;;;;;;1.98;0.80;;;17.00;99.90;;;;;;5040182;28;20025;-61
2023/05/02 08:14:42;;;;;;;3.85;1.10;;;17.00;99.90;;;;;;5022281;28;20033;-61
2023/05/02 08:17:10;;;;;;;1.27;0.65;;;16.90;99.90;;;;;;5039923;28;20033;-62
2023/05/02 08:19:37;;;;;;;1.27;0.70;;;16.70;99.90;;;;;;5040455;28;20029;-61
2023/05/02 08:22:05;;;;;;;1.85;0.65;;;16.60;99.90;;;;;;5042356;28;20502;-62
2023/05/02 08:24:33;;;;;;;3.03;1.15;;;16.50;99.90;;;;;;5043419;28;20041;-62
2023/05/02 08:27:02;;;;;;;3.53;0.77;;;16.40;99.90;;;;;;5034178;28;20120;-61
2023/05/02 08:29:30;;;;;;;1.45;0.70;;;16.40;99.90;;;;;;5038953;28;20070;-62
2023/05/02 08:31:58;;;;;;;5.80;2.60;;;16.40;99.90;;;;;;5039036;28;20043;-63
2023/05/02 08:34:25;;;;;;;5.10;1.30;;;16.60;99.90;;;;;;5032131;28;20110;-62
2023/05/02 08:36:53;;;;;;;14.35;2.25;;;16.80;99.90;;;;;;5039154;28;20091;-61
2023/05/02 08:39:20;;;;;;;8.48;1.65;;;17.00;99.90;;;;;;5041296;28;20540;-62
2023/05/02 08:41:48;;;;;;;15.73;2.45;;;17.10;99.90;;;;;;5034643;28;20546;-62
2023/05/02 08:44:16;;;;;;;20.48;1.85;;;17.30;99.90;;;;;;5036645;28;20025;-61
2023/05/02 08:46:56;;;;;;;8.10;1.25;;;17.30;99.90;;;;;;5040734;28;20045;-63
2023/05/02 08:49:24;;;;;;;10.90;2.33;;;17.40;99.90;;;;;;5025514;28;20113;-62
2023/05/02 08:51:53;;;;;;;7.07;1.10;;;17.30;99.90;;;;;;5039997;28;20068;-64
2023/05/02 08:54:24;;;;;;;8.23;1.38;;;17.10;99.90;;;;;;5033594;28;20041;-62
2023/05/02 08:56:58;;;;;;;9.85;1.27;;;16.90;99.90;;;;;;5040923;28;20045;-61
2023/05/02 08:59:25;;;;;;;13.10;1.65;;;16.80;99.90;;;;;;5041077;28;20069;-62
2023/05/02 09:01:59;;;;;;;6.07;0.88;;;16.70;99.90;;;;;;5024170;28;20033;-62
2023/05/02 09:04:32;;;;;;;5.50;1.43;;;16.60;99.90;;;;;;5032602;28;20071;-62
2023/05/02 09:06:59;;;;;;;5.07;1.20;;;16.50;99.90;;;;;;5025885;28;20032;-62
2023/05/02 09:09:29;;;;;;;3.33;1.10;;;16.40;99.90;;;;;;5023353;28;20451;-62
2023/05/02 09:11:57;;;;;;;8.90;1.23;;;16.20;99.90;;;;;;5036396;28;20045;-61
2023/05/02 09:14:24;;;;;;;14.38;1.15;;;16.10;99.90;;;;;;5015367;28;20758;-62
2023/05/02 09:16:59;;;;;;;3.63;1.17;;;16.00;99.90;;;;;;5038610;28;20038;-63
2023/05/02 09:19:27;;;;;;;8.00;1.45;;;15.80;99.90;;;;;;5032271;28;20040;-62
2023/05/02 09:22:00;;;;;;;5.55;1.10;;;15.70;99.90;;;;;;5036527;28;20056;-62
2023/05/02 09:24:28;;;;;;;4.55;0.98;;;15.60;99.90;;;;;;5041121;28;20063;-62
2023/05/02 09:27:01;;;;;;;5.13;1.00;;;15.40;99.90;;;;;;5043485;28;20033;-61
2023/05/02 09:29:36;;;;;;;1.55;0.70;;;15.30;99.90;;;;;;5028477;28;20440;-61
2023/05/02 09:32:07;;;;;;;2.22;1.42;;;15.10;99.90;;;;;;5042795;28;20025;-62
2023/05/02 09:34:36;;;;;;;3.85;0.80;;;15.00;99.90;;;;;;5040152;28;20035;-62
2023/05/02 09:37:04;;;;;;;3.03;0.93;;;14.80;99.90;;;;;;5037950;28;20109;-61
2023/05/02 09:39:31;;;;;;;4.35;1.10;;;14.70;99.90;;;;;;5045165;28;20041;-61
2023/05/02 09:42:00;;;;;;;2.38;0.80;;;14.60;99.90;;;;;;5038955;28;20497;-61
2023/05/02 09:44:35;;;;;;;2.15;1.00;;;14.40;99.90;;;;;;5038789;28;20115;-61
2023/05/02 09:47:05;;;;;;;3.08;1.17;;;14.30;99.90;;;;;;5038720;28;20155;-62
2023/05/02 09:49:50;;;;;;;2.75;1.40;;;14.20;99.90;;;;;;5040419;28;20195;-61
2023/05/02 09:52:23;;;;;;;6.35;1.95;;;14.10;99.90;;;;;;5037413;28;20033;-61
2023/05/02 09:54:51;;;;;;;13.93;2.00;;;14.00;99.90;;;;;;5037246;28;20035;-61
2023/05/02 09:57:19;;;;;;;7.68;2.15;;;13.90;99.90;;;;;;5023586;28;20044;-61
2023/05/02 09:59:57;;;;;;;5.38;0.98;;;14.10;99.90;;;;;;5021447;28;20040;-62
2023/05/02 10:02:31;;;;;;;6.95;1.77;;;14.30;99.90;;;;;;5040714;28;20603;-62
2023/05/02 10:05:01;;;;;;;2.42;1.23;;;14.40;99.90;;;;;;5020824;28;20055;-62
2023/05/02 10:07:29;;;;;;;3.22;0.70;;;14.40;99.90;;;;;;5035832;28;20163;-63
2023/05/02 10:10:00;;;;;;;5.82;1.00;;;14.50;99.90;;;;;;5039851;28;20596;-62
2023/05/02 10:12:32;;;;;;;3.08;0.75;;;14.50;99.90;;;;;;5039620;28;20021;-61
2023/05/02 10:15:04;;;;;;;3.75;0.68;;;14.40;99.90;;;;;;5020404;28;20040;-62
2023/05/02 10:17:38;;;;;;;3.05;0.65;;;14.50;99.90;;;;;;5043696;28;20029;-62
2023/05/02 10:20:07;;;;;;;3.55;0.68;;;14.60;99.90;;;;;;5025617;28;20071;-62
2023/05/02 10:22:35;;;;;;;1.63;0.70;;;14.70;99.90;;;;;;5015542;28;20139;-62
2023/05/02 10:25:04;;;;;;;1.58;0.60;;;14.70;99.90;;;;;;5019626;28;20432;-62
2023/05/02 10:27:32;;;;;;;1.10;0.50;;;14.70;99.90;;;;;;5043298;28;20025;-62
2023/05/02 10:30:03;;;;;;;2.40;0.82;;;14.70;99.90;;;;;;5044587;28;20402;-62
2023/05/02 10:32:33;;;;;;;4.65;0.50;;;14.80;99.90;;;;;;5036358;28;20028;-62
2023/05/02 10:35:07;;;;;;;4.78;0.60;;;14.70;99.90;;;;;;5037792;28;20025;-62
2023/05/02 10:37:38;;;;;;;0.47;0.30;;;14.60;99.90;;;;;;5021368;28;20066;-61
2023/05/02 10:40:09;;;;;;;0.82;0.43;;;14.50;99.90;;;;;;5041856;28;20106;-63
2023/05/02 10:42:41;;;;;;;1.38;0.68;;;14.40;99.90;;;;;;5041926;28;20388;-62
2023/05/02 10:45:29;;;;;;;2.00;0.75;;;14.30;99.90;;;;;;5036068;28;20044;-62
2023/05/02 10:48:17;;;;;;;8.05;1.63;;;14.10;99.90;;;;;;5020575;28;20433;-62
2023/05/02 10:50:46;;;;;;;2.72;0.90;;;13.90;99.90;;;;;;5015916;28;20506;-61
2023/05/02 10:53:32;;;;;;;1.02;0.60;;;13.70;99.90;;;;;;5014660;28;20038;-61
2023/05/02 10:56:16;;;;;;;3.38;0.77;;;13.60;99.90;;;;;;5018860;28;20112;-62
2023/05/02 10:58:50;;;;;;;1.23;0.65;;;13.50;99.90;;;;;;5016041;28;20806;-62
2023/05/02 11:01:31;;;;;;;1.88;0.77;;;13.40;99.90;;;;;;5014267;28;20037;-62
2023/05/02 11:04:08;;;;;;;1.83;0.60;;;13.30;99.90;;;;;;5013127;28;20029;-62
2023/05/02 11:06:59;;;;;;;1.63;0.57;;;13.20;99.90;;;;;;5014585;28;20061;-63
2023/05/02 11:09:32;;;;;;;1.77;0.43;;;13.10;99.90;;;;;;5011636;28;20040;-62
2023/05/02 11:12:00;;;;;;;2.75;0.77;;;13.10;99.90;;;;;;5017430;28;20060;-63
2023/05/02 11:14:28;;;;;;;1.23;0.47;;;13.00;99.90;;;;;;5012932;28;20758;-62
2023/05/02 11:16:58;;;;;;;1.20;0.60;;;12.90;99.90;;;;;;5014625;28;20112;-62
2023/05/02 11:19:30;;;;;;;1.33;0.95;;;12.80;99.90;;;;;;5016542;28;20045;-61
2023/05/02 11:22:19;;;;;;;1.85;0.85;;;12.80;99.90;;;;;;5017110;28;20052;-62
2023/05/02 11:24:48;;;;;;;2.28;1.00;;;12.70;99.90;;;;;;5011368;28;20025;-64
2023/05/02 11:27:30;;;;;;;2.35;1.05;;;12.60;99.90;;;;;;5021302;28;20120;-63
2023/05/02 11:30:08;;;;;;;3.03;1.02;;;12.50;99.90;;;;;;5013335;28;20037;-61
2023/05/02 11:32:46;;;;;;;2.22;1.10;;;12.40;99.90;;;;;;5019479;28;20579;-62
2023/05/02 11:35:24;;;;;;;2.22;1.10;;;12.30;99.90;;;;;;5014782;28;20034;-61
2023/05/02 11:37:59;;;;;;;2.00;1.27;;;12.20;99.90;;;;;;5022187;28;20748;-61
2023/05/02 11:40:28;;;;;;;3.33;0.98;;;12.20;99.90;;;;;;5023291;28;20052;-62
2023/05/02 11:42:56;;;;;;;2.45;1.10;;;12.40;99.90;;;;;;5025027;28;20052;-62
2023/05/02 11:45:36;;;;;;;1.83;1.00;;;12.30;99.90;;;;;;5023924;28;20030;-62
2023/05/02 11:48:07;;;;;;;3.80;1.30;;;12.60;99.90;;;;;;5031907;28;20044;-62
2023/05/02 11:50:45;;;;;;;4.05;1.10;;;12.80;99.90;;;;;;5036418;28;20029;-62
2023/05/02 11:53:17;;;;;;;4.63;1.30;;;13.00;99.90;;;;;;5039947;28;20033;-63
2023/05/02 11:55:49;;;;;;;2.50;1.13;;;13.40;99.90;;;;;;5044656;28;20029;-62
2023/05/02 11:58:18;;;;;;;3.25;1.10;;;13.40;99.90;;;;;;5035414;28;20029;-62
2023/05/02 12:00:47;;;;;;;5.35;1.38;;;13.30;99.90;;;;;;5038167;28;20178;-65
2023/05/02 12:03:26;;;;;;;5.82;1.17;;;13.10;99.90;;;;;;5038962;28;20025;-64
2023/05/02 12:05:54;;;;;;;3.00;1.00;;;13.00;99.90;;;;;;5046531;28;20029;-61
2023/05/02 12:08:26;;;;;;;2.33;0.95;;;12.90;99.90;;;;;;5024510;28;20550;-61
2023/05/02 12:10:56;;;;;;;2.88;1.50;;;12.70;99.90;;;;;;5051432;28;20390;-61
2023/05/02 12:13:25;;;;;;;3.13;1.30;;;12.60;99.90;;;;;;5051718;28;20115;-61
2023/05/02 12:15:54;;;;;;;2.97;1.23;;;12.40;99.90;;;;;;5047796;28;20068;-62
2023/05/02 12:18:23;;;;;;;2.58;1.30;;;12.20;99.90;;;;;;5050101;28;20047;-61
2023/05/02 12:20:52;;;;;;;3.05;1.10;;;12.10;99.90;;;;;;5049198;28;20116;-60
2023/05/02 12:23:21;;;;;;;2.47;1.15;;;11.90;99.90;;;;;;5042890;28;20535;-60
2023/05/02 12:25:49;;;;;;;4.88;1.40;;;11.80;99.90;;;;;;5041085;28;20134;-60
2023/05/02 12:28:22;;;;;;;4.22;1.50;;;11.70;99.90;;;;;;5023400;28;20048;-65
2023/05/02 12:30:50;;;;;;;3.60;1.90;;;11.60;99.90;;;;;;5034886;28;20026;-61
2023/05/02 12:33:18;;;;;;;3.42;1.60;;;11.50;99.90;;;;;;5030326;28;20385;-61
2023/05/02 12:35:46;;;;;;;6.05;1.83;;;11.40;99.90;;;;;;5048900;28;20029;-61
2023/05/02 12:38:15;;;;;;;3.92;1.90;;;11.30;99.90;;;;;;5022870;28;20029;-60
2023/05/02 12:40:53;;;;;;;4.70;2.63;;;11.30;99.90;;;;;;5033532;28;20033;-60
2023/05/02 12:43:21;;;;;;;4.47;2.28;;;11.20;99.90;;;;;;5031987;28;20378;-60
2023/05/02 12:45:49;;;;;;;5.75;2.47;;;11.20;99.90;;;;;;5043690;28;20048;-61
2023/05/02 12:48:27;;;;;;;6.80;2.35;;;11.20;99.90;;;;;;5035472;28;20102;-65
2023/05/02 12:50:55;;;;;;;4.63;1.80;;;11.20;99.90;;;;;;5032057;28;20083;-61
2023/05/02 12:53:43;;;;;;;5.78;2.45;;;11.10;99.90;;;;;;5044250;28;20032;-61
2023/05/02 12:56:12;;;;;;;3.22;2.05;;;11.10;99.90;;;;;;5014782;28;20021;-60
2023/05/02 12:58:48;;;;;;;6.63;2.10;;;11.10;99.90;;;;;;5016267;28;20072;-61
2023/05/02 13:01:16;;;;;;;3.88;1.80;;;11.10;99.90;;;;;;5040934;28;20036;-61